Etusivu
METAR-TAF:

METAR-TAF

Lentoasemat :

Wuhan, Kiina

Leveyspiiri: 30-37N, Pituuspiiri: 114-08E, korkeus merenpinnasta: 23 m

Tämänhetkinen sää

Tämä raportti tehtiin 28 minuuttia sitten, kello 11.00 UTC
Tuuli 2 kn eri suunnista
Lämpötila 27°C
Kosteus 70%
Ilmanpaine 1011 hPa
Näkyvyys 10 km tai enemmän
Hajanaisia pilviä 4000 ft:n korkeudessa

METAR: ZHHH 211100Z VRB01MPS 9999 SCT040 27/21 Q1011 NOSIG

Aika: 19:28 (11:28 UTC)

Sääennuste

Tämä raportti tehtiin 8 tuntia ja 28 minuuttia sitten, kello 03.00 UTC
Ennuste voimassa 21. päivästä klo 06 UTC - 22. päivään klo 06 UTC
Tuuli 6 kn koillisesta
Näkyvyys: 6000 m

TAF: ZHHH 210300Z 2106/2206 05003MPS 6000 NSC TX30/2107Z TN22/2122Z

Säähavainnot ja -ennusteet yli 4000 lentoasemalta (METAR- ja TAF-raportit).

Käytössä olevat sääasemat on merkitty karttaan keltaisilla ja punaisilla pisteillä.

Aseta hiiri pisteen päälle nähdäksesi sääaseman nimen.

Klikkaa sitten nähdäksesi säähavainnot ja -ennusteet.

Kartan vaihtaminen: klikkaa mustalla rastilla varustettuja vihreitä pisteitä, niin voit zoomata sisään; viivalla varustettua vihreää pistettä, niin voit zoomata ulos tai vihreitä nuolia, niin pääset viereisille kartoille.


METAR-TAF: